NO-0018 weather

Public forecast

Using degrees Celsius for public forecast. Weather courtesy of forecast.io.

Closest aviation weather report (METAR) to Gossen Airfield

Closest report is Molde Airport, 13.1 nm (24.2 km) ESE. Retrieved 2020/08/15 07:20 UTC (15 minutes ago):

ENML 150720Z 03004KT 9999 VCSH FEW020 SCT035 BKN050 15/12 Q1016

Closest aviation forecast (TAF) to Gossen Airfield

Forecast is more than 12 hours old.

Closest forecast is Molde Airport, 13.1 nm (24.2 km) ESE. Retrieved 2011/03/08 08:45 UTC (9 years ago):

TAF TAF ESDF 0808 FCNO33 ENMI 080800 RRC TAF ENML 080800Z 0809/0818 21015KT 9999 FEW030 BKN050 TEMPO 0809/0818 21022G35KT BECMG 0815/0818 21022G35KT TEMPO 0815/0818 4000 RADZ BKN012